Time;durP1;ratioP1;P1;durP2;ratioP2;P2;SDS_P1;SDS_P2;PMS_P1;PMS_P2;Temp;Humidity;BMP_temperature;BMP_pressure;BME280_temperature;BME280_humidity;BME280_pressure;Samples;Min_cycle;Max_cycle;Signal;HPM_P1;HPM_P2
2023/10/28 00:01:49;;;;;;;2.42;0.80;;;;;;;24.96;44.24;98322.50;4497509;31;32994;-62
2023/10/28 00:04:16;;;;;;;1.67;0.90;;;;;;;24.96;44.25;98314.31;4511790;31;34839;-61
2023/10/28 00:06:44;;;;;;;2.37;1.02;;;;;;;24.96;44.26;98327.94;4510379;31;34407;-62
2023/10/28 00:09:11;;;;;;;2.17;1.00;;;;;;;24.95;44.26;98334.50;4511595;31;34435;-61
2023/10/28 00:11:39;;;;;;;4.15;0.93;;;;;;;24.96;44.26;98332.59;4512109;31;33426;-62
2023/10/28 00:14:07;;;;;;;2.83;1.00;;;;;;;24.98;44.29;98333.94;4511977;31;34896;-61
2023/10/28 00:16:36;;;;;;;4.43;0.90;;;;;;;24.98;44.02;98339.37;4510615;31;34706;-61
2023/10/28 00:19:04;;;;;;;9.35;1.30;;;;;;;24.96;43.72;98340.78;4511832;31;34352;-61
2023/10/28 00:21:32;;;;;;;2.55;1.10;;;;;;;24.94;43.74;98344.56;4484565;31;33491;-62
2023/10/28 00:23:59;;;;;;;1.98;1.00;;;;;;;24.94;43.77;98351.94;4505898;31;33917;-61
2023/10/28 00:26:27;;;;;;;2.22;1.10;;;;;;;24.93;43.81;98358.50;4494811;31;34695;-61
2023/10/28 00:28:56;;;;;;;2.22;1.00;;;;;;;24.92;43.87;98351.41;4495980;31;33716;-61
2023/10/28 00:31:23;;;;;;;5.40;1.08;;;;;;;24.91;43.95;98344.31;4494841;32;33395;-61
2023/10/28 00:33:51;;;;;;;3.45;1.12;;;;;;;24.91;43.90;98347.03;4494615;32;33815;-61
2023/10/28 00:36:20;;;;;;;4.60;1.20;;;;;;;24.91;43.84;98347.03;4493794;31;34705;-62
2023/10/28 00:38:47;;;;;;;1.92;0.90;;;;;;;24.90;43.83;98343.50;4481822;32;32291;-61
2023/10/28 00:41:17;;;;;;;1.58;1.00;;;;;;;24.90;43.87;98342.66;4495807;32;34136;-61
2023/10/28 00:43:44;;;;;;;2.62;0.80;;;;;;;24.89;43.92;98346.47;4496000;31;33932;-61
2023/10/28 00:46:12;;;;;;;2.40;1.08;;;;;;;24.89;43.89;98352.75;4495959;31;33614;-61
2023/10/28 00:48:40;;;;;;;1.35;0.82;;;;;;;24.87;43.89;98354.94;4495488;31;33801;-61
2023/10/28 00:51:08;;;;;;;5.65;0.90;;;;;;;24.87;43.90;98356.84;4495936;32;33467;-61
2023/10/28 00:53:36;;;;;;;4.93;1.20;;;;;;;24.87;44.05;98362.31;4494688;32;33887;-61
2023/10/28 00:56:04;;;;;;;6.50;0.80;;;;;;;24.85;44.22;98365.28;4494413;32;34673;-61
2023/10/28 00:58:32;;;;;;;4.00;0.90;;;;;;;24.85;44.14;98369.94;4494626;31;33738;-61
2023/10/28 01:00:59;;;;;;;3.70;0.90;;;;;;;24.85;44.07;98381.66;4483666;32;33399;-62
2023/10/28 01:03:30;;;;;;;2.80;0.82;;;;;;;24.84;44.11;98374.56;4485178;32;33848;-61
2023/10/28 01:05:58;;;;;;;2.30;1.00;;;;;;;24.84;44.20;98379.22;4471527;32;34651;-61
2023/10/28 01:08:25;;;;;;;4.35;1.00;;;;;;;24.84;44.17;98384.66;4483956;32;33565;-61
2023/10/28 01:10:59;;;;;;;2.83;1.08;;;;;;;24.83;44.27;98378.41;4483821;32;32535;-61
2023/10/28 01:13:27;;;;;;;2.40;1.00;;;;;;;24.83;44.25;98377.56;4484191;32;33815;-61
2023/10/28 01:15:55;;;;;;;1.62;0.80;;;;;;;24.83;44.34;98366.66;4485126;32;33591;-61
2023/10/28 01:18:23;;;;;;;1.80;0.80;;;;;;;24.82;44.40;98376.75;4471100;32;32633;-61
2023/10/28 01:20:51;;;;;;;1.83;1.12;;;;;;;24.81;44.43;98371.59;4485128;32;33327;-62
2023/10/28 01:23:18;;;;;;;2.60;1.10;;;;;;;24.81;44.41;98379.78;4483830;32;34678;-61
2023/10/28 01:25:46;;;;;;;2.33;0.90;;;;;;;24.81;44.54;98379.78;4485247;32;34014;-61
2023/10/28 01:28:14;;;;;;;1.67;0.80;;;;;;;24.80;44.51;98378.09;4483783;32;33693;-61
2023/10/28 01:30:41;;;;;;;3.67;1.15;;;;;;;24.79;44.60;98381.94;4483794;32;33504;-61
2023/10/28 01:33:09;;;;;;;3.05;1.00;;;;;;;24.79;44.44;98373.75;4485005;32;35133;-61
2023/10/28 01:35:36;;;;;;;1.75;1.00;;;;;;;24.79;44.56;98376.47;4485075;32;34569;-61
2023/10/28 01:38:04;;;;;;;1.65;0.80;;;;;;;24.79;44.71;98381.94;4484859;32;34468;-61
2023/10/28 01:40:33;;;;;;;2.28;0.82;;;;;;;24.79;44.62;98381.94;4483775;32;33325;-61
2023/10/28 01:43:01;;;;;;;1.30;1.00;;;;;;;24.79;44.78;98384.66;4485003;32;34543;-61
2023/10/28 01:45:29;;;;;;;1.65;0.80;;;;;;;24.78;44.79;98386.56;4483695;32;33940;-61
2023/10/28 01:47:58;;;;;;;2.20;0.98;;;;;;;24.77;44.73;98387.66;4484735;32;33781;-61
2023/10/28 01:50:26;;;;;;;4.55;1.00;;;;;;;24.79;44.73;98396.38;4470825;32;33008;-61
2023/10/28 01:52:53;;;;;;;2.72;0.95;;;;;;;24.78;44.68;98400.22;4484826;32;33909;-61
2023/10/28 01:55:21;;;;;;;1.65;0.77;;;;;;;24.78;44.60;98399.41;4470746;32;34164;-61
2023/10/28 01:57:48;;;;;;;2.45;1.00;;;;;;;24.75;44.73;98400.75;4484926;32;33805;-61
2023/10/28 02:00:16;;;;;;;1.62;0.88;;;;;;;24.77;44.67;98411.41;4484775;32;33437;-62
2023/10/28 02:02:47;;;;;;;1.20;0.82;;;;;;;24.76;44.66;98424.22;4483680;32;34036;-61
2023/10/28 02:05:15;;;;;;;2.22;0.90;;;;;;;24.75;44.70;98428.00;4483762;32;34667;-61
2023/10/28 02:07:43;;;;;;;3.55;1.08;;;;;;;24.75;44.71;98424.47;4483423;32;33438;-62
2023/10/28 02:10:11;;;;;;;3.28;0.90;;;;;;;24.75;44.65;98419.00;4483470;32;33414;-61
2023/10/28 02:12:39;;;;;;;3.28;1.00;;;;;;;24.76;44.60;98417.91;4469753;32;33814;-61
2023/10/28 02:15:08;;;;;;;2.83;0.90;;;;;;;24.75;44.75;98425.28;4483385;32;33116;-61
2023/10/28 02:17:36;;;;;;;2.77;0.90;;;;;;;24.75;44.82;98435.38;4470862;32;33803;-61
2023/10/28 02:20:04;;;;;;;4.82;1.10;;;;;;;24.75;44.75;98424.47;4483796;32;33977;-61
2023/10/28 02:22:32;;;;;;;1.62;0.80;;;;;;;24.75;44.70;98438.09;4470686;32;34543;-61
2023/10/28 02:25:01;;;;;;;3.70;0.90;;;;;;;24.74;44.61;98433.75;4483490;31;33772;-62
2023/10/28 02:27:29;;;;;;;2.15;0.77;;;;;;;24.74;44.60;98431.03;4483122;32;34410;-61
2023/10/28 02:29:57;;;;;;;2.20;0.60;;;;;;;24.73;44.62;98432.13;4483525;32;33476;-62
2023/10/28 02:32:25;;;;;;;2.37;0.70;;;;;;;24.73;44.63;98437.56;4484685;32;33944;-61
2023/10/28 02:34:53;;;;;;;3.28;0.90;;;;;;;24.72;44.66;98438.66;4484740;32;33907;-62
2023/10/28 02:37:22;;;;;;;2.08;0.90;;;;;;;24.72;44.73;98441.41;4483539;32;33871;-61
2023/10/28 02:39:50;;;;;;;1.98;0.98;;;;;;;24.71;44.60;98439.72;4483489;32;34071;-61
2023/10/28 02:42:17;;;;;;;1.20;0.85;;;;;;;24.71;44.39;98429.63;4484445;32;33956;-62
2023/10/28 02:44:45;;;;;;;1.62;0.82;;;;;;;24.71;44.68;98426.91;4484513;32;33790;-61
2023/10/28 02:47:12;;;;;;;1.55;0.82;;;;;;;24.71;44.63;98423.37;4484463;32;33836;-62
2023/10/28 02:49:40;;;;;;;2.80;1.02;;;;;;;24.69;44.69;98424.47;4484230;32;32841;-61
2023/10/28 02:52:08;;;;;;;1.65;0.82;;;;;;;24.69;44.67;98419.00;4484452;32;34690;-61
2023/10/28 02:54:35;;;;;;;2.92;1.10;;;;;;;24.68;44.67;98420.09;4483205;32;33864;-61
2023/10/28 02:57:03;;;;;;;1.73;0.77;;;;;;;24.68;44.53;98420.09;4484327;32;34329;-61
2023/10/28 02:59:31;;;;;;;2.17;1.00;;;;;;;24.67;44.53;98423.91;4484505;32;33343;-61
2023/10/28 03:01:58;;;;;;;2.22;1.00;;;;;;;24.68;44.60;98424.75;4483089;32;34437;-61
2023/10/28 03:04:26;;;;;;;2.87;1.00;;;;;;;24.67;44.73;98415.75;4470150;32;33951;-61
2023/10/28 03:06:53;;;;;;;2.05;0.90;;;;;;;24.67;44.57;98417.66;4484399;32;34003;-61
2023/10/28 03:09:22;;;;;;;3.35;0.90;;;;;;;24.66;44.53;98418.72;4484041;32;33413;-61
2023/10/28 03:11:50;;;;;;;2.17;0.93;;;;;;;24.66;44.58;98418.72;4484200;32;33881;-61
2023/10/28 03:14:18;;;;;;;2.50;0.82;;;;;;;24.66;44.64;98424.97;4483078;32;34117;-61
2023/10/28 03:16:46;;;;;;;2.92;1.08;;;;;;;24.65;44.66;98420.63;4483037;32;32989;-61
2023/10/28 03:19:13;;;;;;;2.53;0.90;;;;;;;24.66;44.67;98432.34;4484103;32;34715;-62
2023/10/28 03:21:41;;;;;;;2.08;0.95;;;;;;;24.65;44.66;98433.44;4484181;32;33651;-61
2023/10/28 03:24:09;;;;;;;2.25;1.00;;;;;;;24.65;44.73;98428.00;4482572;32;33448;-61
2023/10/28 03:26:36;;;;;;;2.25;0.90;;;;;;;24.64;44.71;98440.81;4483093;32;33766;-61
2023/10/28 03:29:05;;;;;;;0.80;0.77;;;;;;;24.64;44.79;98432.63;4484048;32;33385;-61
2023/10/28 03:31:33;;;;;;;1.40;0.80;;;;;;;24.65;44.85;98442.44;4469867;32;32831;-61
2023/10/28 03:34:01;;;;;;;3.05;0.93;;;;;;;24.64;44.87;98440.81;4482683;32;33434;-61
2023/10/28 03:36:28;;;;;;;7.75;1.30;;;;;;;24.63;44.91;98439.19;4482732;32;33304;-62
2023/10/28 03:38:56;;;;;;;1.33;0.80;;;;;;;24.62;44.92;98443.00;4484044;32;33326;-62
2023/10/28 03:41:24;;;;;;;2.72;0.98;;;;;;;24.64;44.81;98446.25;4484085;32;33613;-61
2023/10/28 03:43:52;;;;;;;2.90;1.10;;;;;;;24.63;44.85;98458.25;4482654;32;34767;-61
2023/10/28 03:46:20;;;;;;;3.25;1.10;;;;;;;24.63;44.86;98452.81;4482674;32;33758;-61
2023/10/28 03:48:48;;;;;;;2.45;0.77;;;;;;;24.63;44.89;98458.25;4482313;32;33437;-61
2023/10/28 03:51:17;;;;;;;4.70;1.15;;;;;;;24.63;44.92;98465.62;4483929;32;33895;-62
2023/10/28 03:53:44;;;;;;;2.72;0.85;;;;;;;24.62;45.03;98462.09;4483820;32;34492;-61
2023/10/28 03:56:12;;;;;;;2.15;0.77;;;;;;;24.62;44.99;98464.81;4482393;32;32690;-62
2023/10/28 03:58:40;;;;;;;2.30;1.00;;;;;;;24.62;44.92;98453.91;4483813;32;33006;-61
2023/10/28 04:01:08;;;;;;;2.03;0.77;;;;;;;24.63;44.90;98465.62;4483696;32;33404;-61
2023/10/28 04:03:36;;;;;;;4.50;1.10;;;;;;;24.61;44.72;98468.59;4483671;32;34702;-61
2023/10/28 04:06:04;;;;;;;2.10;1.00;;;;;;;24.61;44.84;98456.88;4482463;32;33059;-61
2023/10/28 04:08:34;;;;;;;3.62;1.02;;;;;;;24.61;44.85;98463.16;4483470;32;33051;-61
2023/10/28 04:11:03;;;;;;;3.83;0.80;;;;;;;24.59;44.93;98470.78;4482277;32;34604;-62
2023/10/28 04:13:31;;;;;;;2.50;0.68;;;;;;;24.60;44.76;98461.50;4482588;32;33523;-61
2023/10/28 04:15:59;;;;;;;2.67;0.70;;;;;;;24.59;44.63;98465.34;4482113;32;34355;-61
2023/10/28 04:18:27;;;;;;;1.92;0.90;;;;;;;24.61;44.84;98454.16;4482200;32;34021;-62
2023/10/28 04:20:54;;;;;;;4.12;1.23;;;;;;;24.59;44.84;98465.34;4482109;32;34001;-61
2023/10/28 04:23:22;;;;;;;2.60;0.88;;;;;;;24.58;44.75;98460.16;4483075;32;35182;-61
2023/10/28 04:25:50;;;;;;;3.35;1.17;;;;;;;24.57;44.86;98467.50;4483323;32;33839;-61
2023/10/28 04:28:17;;;;;;;5.62;1.10;;;;;;;24.58;44.79;98462.88;4482085;32;33197;-61
2023/10/28 04:30:55;;;;;;;2.70;1.00;;;;;;;24.57;44.72;98472.94;4482930;32;33831;-61
2023/10/28 04:33:24;;;;;;;1.87;0.70;;;;;;;24.59;45.03;98475.44;4481997;32;33000;-62
2023/10/28 04:35:53;;;;;;;0.95;0.60;;;;;;;24.56;44.90;98471.31;4484971;32;33610;-62
2023/10/28 04:38:21;;;;;;;6.45;1.02;;;;;;;24.58;45.04;98471.06;4471368;32;33421;-63
2023/10/28 04:40:51;;;;;;;2.80;0.93;;;;;;;24.57;45.12;98483.84;4471091;32;34693;-62
2023/10/28 04:43:20;;;;;;;4.10;0.80;;;;;;;24.57;45.00;98491.22;4483971;32;33695;-62
2023/10/28 04:45:49;;;;;;;1.75;0.80;;;;;;;24.57;44.85;98488.50;4485260;32;33854;-63
2023/10/28 04:48:18;;;;;;;;;;;;;;;24.57;44.85;98483.03;4485378;32;34199;-63
2023/10/28 04:50:46;;;;;;;3.45;0.85;;;;;;;24.66;44.56;98471.34;4485134;32;34043;-62
2023/10/28 04:53:14;;;;;;;3.53;0.90;;;;;;;24.59;44.69;98476.25;4484095;32;33745;-61
2023/10/28 04:55:43;;;;;;;1.65;0.95;;;;;;;24.55;44.95;98472.41;4471130;32;33852;-63
2023/10/28 04:58:11;;;;;;;3.43;0.80;;;;;;;24.55;44.96;98475.13;4485443;32;33410;-62
2023/10/28 05:00:39;;;;;;;4.87;0.77;;;;;;;24.55;44.95;98477.84;4483748;32;33765;-62
2023/10/28 05:03:07;;;;;;;3.95;0.88;;;;;;;24.56;45.20;98484.13;4485241;32;33526;-62
2023/10/28 05:05:34;;;;;;;1.45;0.70;;;;;;;24.54;45.15;98473.50;4470996;32;32846;-62
2023/10/28 05:08:02;;;;;;;3.92;0.85;;;;;;;24.54;45.11;98476.22;4485326;32;33312;-62
2023/10/28 05:10:30;;;;;;;4.10;0.88;;;;;;;24.55;45.08;98477.03;4485117;32;34063;-62
2023/10/28 05:12:59;;;;;;;4.07;0.90;;;;;;;24.55;45.13;98487.94;4483684;32;33727;-61
2023/10/28 05:15:28;;;;;;;2.67;0.88;;;;;;;24.54;45.07;98492.59;4485314;32;33703;-62
2023/10/28 05:17:56;;;;;;;2.40;0.80;;;;;;;24.54;45.09;98495.31;4485078;32;33176;-62
2023/10/28 05:20:24;;;;;;;2.05;1.00;;;;;;;24.54;45.07;98500.75;4483635;32;34408;-62
2023/10/28 05:22:52;;;;;;;3.22;0.98;;;;;;;24.54;45.14;98503.50;4468565;32;33908;-62
2023/10/28 05:25:20;;;;;;;3.17;1.10;;;;;;;24.54;45.05;98499.94;4455062;32;33903;-62
2023/10/28 05:27:49;;;;;;;3.62;1.00;;;;;;;24.54;45.07;98500.75;4467991;32;33411;-62
2023/10/28 05:30:16;;;;;;;2.50;1.00;;;;;;;24.54;45.18;98508.94;4469280;32;33744;-62
2023/10/28 05:32:44;;;;;;;4.07;0.93;;;;;;;24.55;45.15;98509.75;4467740;32;34010;-62
2023/10/28 05:35:13;;;;;;;4.40;1.02;;;;;;;24.53;45.17;98529.13;4469209;32;33722;-62
2023/10/28 05:37:40;;;;;;;3.15;1.00;;;;;;;24.54;45.02;98538.13;4467846;32;32357;-62
2023/10/28 05:40:10;;;;;;;3.25;1.00;;;;;;;24.53;45.14;98542.75;4468986;32;33937;-62
2023/10/28 05:42:37;;;;;;;1.57;0.90;;;;;;;24.54;45.14;98555.31;4468265;32;34009;-61
2023/10/28 05:45:07;;;;;;;6.10;1.15;;;;;;;24.55;45.08;98561.56;4473315;32;33682;-62
2023/10/28 05:47:35;;;;;;;3.42;1.10;;;;;;;24.53;45.13;98559.13;4484537;32;33411;-61
2023/10/28 05:50:07;;;;;;;3.47;1.00;;;;;;;24.54;45.14;98570.84;4484583;32;33892;-62
2023/10/28 05:52:38;;;;;;;3.47;0.82;;;;;;;24.53;45.16;98574.63;4484641;32;34782;-62
2023/10/28 05:55:11;;;;;;;2.90;0.90;;;;;;;24.54;45.14;98570.84;4470700;32;34401;-62
2023/10/28 05:57:39;;;;;;;4.03;0.90;;;;;;;24.52;45.14;98579.28;4483496;32;33212;-61
2023/10/28 06:00:10;;;;;;;1.92;0.85;;;;;;;24.53;45.19;98583.66;4470512;32;33990;-61
2023/10/28 06:02:38;;;;;;;2.53;0.82;;;;;;;24.53;45.29;98580.94;4483562;32;33533;-61
2023/10/28 06:05:06;;;;;;;2.87;0.88;;;;;;;24.52;45.15;98592.91;4483425;32;34363;-62
2023/10/28 06:07:34;;;;;;;2.37;1.00;;;;;;;24.53;45.10;98593.72;4483191;32;33311;-62
2023/10/28 06:10:02;;;;;;;2.92;0.85;;;;;;;24.52;45.15;98598.37;4477519;32;33475;-69
2023/10/28 06:12:30;;;;;;;1.83;0.90;;;;;;;24.52;45.09;98595.62;4482026;32;33787;-62
2023/10/28 06:14:57;;;;;;;2.50;0.90;;;;;;;24.51;44.64;98602.19;4484058;32;33631;-61
2023/10/28 06:17:25;;;;;;;1.35;0.80;;;;;;;24.51;44.92;98607.63;4482860;32;32262;-61
2023/10/28 06:19:52;;;;;;;5.00;0.90;;;;;;;24.52;45.04;98600.28;4482963;32;33895;-61
2023/10/28 06:22:21;;;;;;;4.07;0.90;;;;;;;24.52;45.01;98614.72;4483898;32;33589;-61
2023/10/28 06:24:49;;;;;;;1.70;0.60;;;;;;;24.52;45.03;98619.34;4479888;31;33477;-61
2023/10/28 06:27:17;;;;;;;1.35;0.70;;;;;;;24.53;45.00;98613.66;4483790;32;33287;-61
2023/10/28 06:29:44;;;;;;;2.33;0.90;;;;;;;24.52;45.02;98608.44;4466811;32;34554;-61
2023/10/28 06:32:13;;;;;;;3.95;1.00;;;;;;;24.52;45.02;98613.91;4468398;32;33883;-61
2023/10/28 06:34:41;;;;;;;2.55;0.93;;;;;;;24.50;45.04;98619.63;4468362;32;33362;-62
2023/10/28 06:37:08;;;;;;;3.65;1.05;;;;;;;24.52;45.01;98613.91;4468811;32;33077;-61
2023/10/28 06:39:36;;;;;;;2.97;0.80;;;;;;;24.51;45.05;98624.00;4483532;32;33859;-61
2023/10/28 06:42:04;;;;;;;1.20;0.80;;;;;;;24.51;45.08;98629.44;4466843;32;33308;-61
2023/10/28 06:44:33;;;;;;;2.37;0.95;;;;;;;24.51;45.07;98632.19;4483623;32;33946;-61
2023/10/28 06:47:00;;;;;;;3.55;1.00;;;;;;;24.53;45.09;98637.34;4469325;32;33569;-61
2023/10/28 06:49:28;;;;;;;2.00;0.95;;;;;;;24.52;45.06;98642.00;4482232;32;33979;-61
2023/10/28 06:51:55;;;;;;;4.20;1.00;;;;;;;24.52;45.05;98639.25;4482355;32;34297;-61
2023/10/28 06:54:24;;;;;;;5.00;0.80;;;;;;;24.52;45.12;98641.16;4482931;32;33663;-62
2023/10/28 06:56:51;;;;;;;1.05;0.80;;;;;;;24.52;45.09;98652.91;4481137;32;33431;-61
2023/10/28 06:59:19;;;;;;;5.62;1.95;;;;;;;24.54;45.19;98653.47;4482734;32;33641;-63
2023/10/28 07:01:47;;;;;;;5.45;2.70;;;;;;;24.49;43.03;98649.91;4481700;32;33924;-63
2023/10/28 07:04:14;;;;;;;7.62;2.20;;;;;;;24.45;42.57;98655.03;4483240;32;33889;-62
2023/10/28 07:06:45;;;;;;;4.93;1.80;;;;;;;24.41;42.94;98660.19;4481573;32;34058;-63
2023/10/28 07:09:15;;;;;;;4.45;1.80;;;;;;;24.42;43.19;98663.72;4481249;32;32867;-62
2023/10/28 07:11:42;;;;;;;;;;;;;;;24.41;43.58;98670.28;4483840;32;33986;-63
2023/10/28 07:14:10;;;;;;;2.97;1.40;;;;;;;24.49;43.56;98672.53;4483759;32;34000;-62
2023/10/28 07:16:38;;;;;;;5.65;2.10;;;;;;;24.42;43.56;98680.09;4484067;32;33265;-63
2023/10/28 07:19:05;;;;;;;5.18;1.92;;;;;;;24.39;43.74;98680.63;4484327;32;34005;-64
2023/10/28 07:21:33;;;;;;;3.78;2.08;;;;;;;24.39;43.78;98694.25;4484134;32;34044;-63
2023/10/28 07:24:01;;;;;;;5.68;1.85;;;;;;;24.38;43.63;98698.03;4482824;32;33399;-64
2023/10/28 07:26:29;;;;;;;4.95;1.70;;;;;;;24.36;43.56;98711.94;4483887;32;33424;-63
2023/10/28 07:28:57;;;;;;;3.87;1.70;;;;;;;24.37;43.50;98720.94;4484093;32;34502;-64
2023/10/28 07:31:26;;;;;;;7.82;2.08;;;;;;;24.38;43.42;98738.94;4482897;32;34112;-64
2023/10/28 07:33:56;;;;;;;5.00;1.52;;;;;;;24.36;43.48;98730.19;4482677;32;33812;-65
2023/10/28 07:36:23;;;;;;;;;;;;;;;24.35;43.35;98732.09;4484555;32;33392;-65
2023/10/28 07:38:51;;;;;;;3.35;1.45;;;;;;;24.45;43.20;98727.84;4484168;32;34180;-65
2023/10/28 07:41:19;;;;;;;4.20;1.48;;;;;;;24.36;43.35;98722.00;4481520;32;33931;-63
2023/10/28 07:43:46;;;;;;;3.53;1.60;;;;;;;24.34;43.39;98718.69;4483912;32;33432;-64
2023/10/28 07:46:14;;;;;;;3.97;1.50;;;;;;;24.34;43.35;98718.69;4483847;32;32897;-65
2023/10/28 07:48:41;;;;;;;4.12;1.40;;;;;;;24.33;43.39;98715.16;4469319;32;34647;-63
2023/10/28 07:51:13;;;;;;;3.70;1.45;;;;;;;24.33;43.42;98711.59;4483884;32;33899;-64
2023/10/28 07:53:41;;;;;;;3.15;1.70;;;;;;;24.32;43.40;98710.78;4481618;32;33739;-64
2023/10/28 07:56:09;;;;;;;4.95;1.58;;;;;;;24.32;43.41;98710.78;4466232;32;32355;-64
2023/10/28 07:58:37;;;;;;;4.25;1.65;;;;;;;24.34;43.45;98721.41;4466927;32;34655;-62
2023/10/28 08:01:13;;;;;;;2.87;1.77;;;;;;;24.32;43.32;98718.16;4480389;32;34366;-63
2023/10/28 08:03:43;;;;;;;5.22;1.90;;;;;;;24.32;43.20;98729.88;4481993;32;33587;-63
2023/10/28 08:06:12;;;;;;;2.87;1.75;;;;;;;24.32;43.18;98734.50;4470966;32;33260;-63
2023/10/28 08:08:53;;;;;;;3.72;1.73;;;;;;;24.31;43.20;98732.88;4469204;32;35266;-63
2023/10/28 08:11:24;;;;;;;3.95;1.67;;;;;;;24.32;43.19;98734.50;4485336;32;33536;-64
2023/10/28 08:13:54;;;;;;;2.45;1.50;;;;;;;24.32;43.19;98737.22;4483571;32;33906;-63
2023/10/28 08:16:23;;;;;;;2.30;1.37;;;;;;;24.31;43.26;98735.59;4484186;32;33374;-63
2023/10/28 08:18:50;;;;;;;4.35;1.67;;;;;;;24.31;43.19;98735.59;4484259;32;33492;-64
2023/10/28 08:21:18;;;;;;;2.70;1.40;;;;;;;24.30;43.21;98744.84;4485349;32;34012;-62
2023/10/28 08:23:46;;;;;;;3.85;1.70;;;;;;;24.30;43.30;98745.66;4484169;31;34379;-64
2023/10/28 08:26:17;;;;;;;5.28;2.28;;;;;;;24.31;43.43;98757.41;4471466;32;34073;-64
2023/10/28 08:28:52;;;;;;;2.78;1.60;;;;;;;24.30;43.35;98756.56;4485348;32;33721;-63
2023/10/28 08:31:20;;;;;;;6.78;1.70;;;;;;;24.30;43.38;98753.03;4485204;32;33928;-63
2023/10/28 08:33:50;;;;;;;3.20;1.62;;;;;;;24.31;43.41;98760.13;4471313;32;34302;-64
2023/10/28 08:36:20;;;;;;;2.92;1.55;;;;;;;24.31;43.38;98762.84;4458908;32;33214;-63
2023/10/28 08:38:48;;;;;;;5.97;2.20;;;;;;;24.32;43.41;98767.22;4484147;32;33536;-64
2023/10/28 08:41:21;;;;;;;3.35;1.35;;;;;;;24.32;43.43;98769.94;4485302;32;33553;-64
2023/10/28 08:43:51;;;;;;;3.00;1.50;;;;;;;24.31;43.45;98777.31;4483936;32;32618;-63
2023/10/28 08:46:19;;;;;;;2.53;1.50;;;;;;;24.32;43.48;98783.56;4483864;32;33467;-63
2023/10/28 08:48:48;;;;;;;4.93;1.87;;;;;;;24.32;43.50;98786.28;4483746;32;33924;-63
2023/10/28 08:51:20;;;;;;;5.72;1.70;;;;;;;24.32;43.56;98787.13;4483932;32;33975;-63
2023/10/28 08:53:47;;;;;;;2.53;1.35;;;;;;;24.33;43.58;98791.47;4457958;32;33076;-64
2023/10/28 08:56:18;;;;;;;4.57;1.50;;;;;;;24.32;43.58;98792.56;4483925;32;32919;-64
2023/10/28 08:58:50;;;;;;;5.50;1.60;;;;;;;24.31;43.70;98796.37;4454377;32;33861;-63
2023/10/28 09:01:19;;;;;;;4.55;1.20;;;;;;;24.33;43.63;98798.84;4483862;32;34857;-64
2023/10/28 09:03:47;;;;;;;10.48;2.28;;;;;;;24.33;43.74;98804.28;4483425;32;34524;-63
2023/10/28 09:06:15;;;;;;;10.43;1.87;;;;;;;24.34;43.94;98803.22;4483953;32;33578;-63
2023/10/28 09:08:42;;;;;;;4.93;1.65;;;;;;;24.34;44.13;98809.50;4485188;32;33941;-63
2023/10/28 09:11:10;;;;;;;7.82;2.00;;;;;;;24.33;44.11;98804.28;4485062;32;34037;-64
2023/10/28 09:13:41;;;;;;;10.75;2.08;;;;;;;24.34;44.18;98814.13;4458036;32;34486;-65
2023/10/28 09:16:09;;;;;;;9.60;1.80;;;;;;;24.34;44.18;98811.37;4470784;32;33122;-64
2023/10/28 09:18:40;;;;;;;5.80;1.92;;;;;;;24.34;44.16;98817.69;4484630;32;33622;-63
2023/10/28 09:21:09;;;;;;;6.45;2.78;;;;;;;24.34;44.34;98823.16;4483128;32;33912;-65
2023/10/28 09:23:37;;;;;;;12.13;1.87;;;;;;;24.34;44.43;98817.69;4483553;31;33888;-63
2023/10/28 09:26:05;;;;;;;13.10;2.12;;;;;;;24.37;44.69;98824.56;4484925;32;32921;-63
2023/10/28 09:28:32;;;;;;;8.23;2.22;;;;;;;24.36;44.94;98820.16;4484764;32;34016;-63
2023/10/28 09:31:01;;;;;;;7.53;1.90;;;;;;;24.36;45.05;98823.72;4470842;32;33958;-64
2023/10/28 09:33:30;;;;;;;7.43;1.90;;;;;;;24.36;45.01;98818.28;4470772;32;33733;-64
2023/10/28 09:35:57;;;;;;;9.73;1.87;;;;;;;24.36;45.05;98826.44;4467769;32;33060;-64
2023/10/28 09:38:25;;;;;;;10.75;1.52;;;;;;;24.37;45.08;98822.66;4442547;32;34605;-64
2023/10/28 09:40:53;;;;;;;10.70;1.80;;;;;;;24.38;45.10;98834.37;4468264;32;33999;-65
2023/10/28 09:43:21;;;;;;;5.60;1.67;;;;;;;24.37;45.14;98828.09;4467945;32;33954;-65
2023/10/28 09:45:52;;;;;;;7.80;1.87;;;;;;;24.38;45.17;98823.47;4455260;32;33455;-63
2023/10/28 09:48:19;;;;;;;6.97;1.60;;;;;;;24.38;45.21;98828.91;4467652;32;34503;-63
2023/10/28 09:50:49;;;;;;;3.95;1.40;;;;;;;24.38;45.20;98823.47;4455819;32;33892;-64
2023/10/28 09:53:17;;;;;;;8.82;1.90;;;;;;;24.38;45.14;98823.47;4483501;32;33894;-64
2023/10/28 09:55:46;;;;;;;7.45;2.05;;;;;;;24.39;45.11;98822.41;4483693;32;33710;-64
2023/10/28 09:58:21;;;;;;;7.00;1.50;;;;;;;24.37;45.06;98819.09;4484669;32;34710;-63
2023/10/28 10:00:54;;;;;;;3.83;1.48;;;;;;;24.38;45.12;98820.75;4471252;32;34394;-63
2023/10/28 10:03:29;;;;;;;5.05;1.50;;;;;;;24.38;45.06;98818.81;4470621;32;33406;-65
2023/10/28 10:05:57;;;;;;;7.43;1.62;;;;;;;24.37;45.01;98817.19;4483882;32;33377;-63
2023/10/28 10:08:24;;;;;;;5.95;1.40;;;;;;;24.37;45.04;98817.19;4483521;32;33708;-64
2023/10/28 10:10:53;;;;;;;8.55;1.83;;;;;;;24.37;45.05;98813.66;4470423;32;32564;-64
2023/10/28 10:13:21;;;;;;;9.13;1.70;;;;;;;24.37;45.06;98819.91;4484923;32;33885;-64
2023/10/28 10:15:55;;;;;;;6.62;1.20;;;;;;;24.38;45.08;98818.81;4483217;32;32787;-64
2023/10/28 10:18:28;;;;;;;4.22;1.40;;;;;;;24.36;45.08;98811.97;4484823;32;34614;-63
2023/10/28 10:21:04;;;;;;;5.65;1.60;;;;;;;24.37;45.05;98810.91;4484852;32;33615;-63
2023/10/28 10:23:41;;;;;;;5.43;1.60;;;;;;;24.37;45.04;98816.38;4484555;31;33999;-63
2023/10/28 10:26:21;;;;;;;3.50;1.73;;;;;;;24.37;45.07;98808.19;4483371;32;32967;-63
2023/10/28 10:28:51;;;;;;;3.75;1.45;;;;;;;24.37;45.07;98810.91;4483381;32;33937;-63
2023/10/28 10:31:21;;;;;;;5.55;1.77;;;;;;;24.34;45.09;98801.34;4484548;32;33640;-64
2023/10/28 10:34:02;;;;;;;7.87;1.55;;;;;;;24.35;45.05;98799.44;4469702;32;34714;-65
2023/10/28 10:36:30;;;;;;;6.37;1.42;;;;;;;24.35;44.74;98802.16;4483401;32;33382;-64
2023/10/28 10:39:11;;;;;;;7.25;1.55;;;;;;;24.33;44.66;98810.56;4483231;32;33875;-64
2023/10/28 10:41:39;;;;;;;9.00;1.75;;;;;;;24.34;44.68;98822.28;4470739;32;33929;-64
2023/10/28 10:44:36;;;;;;;6.68;1.80;;;;;;;24.32;44.99;98819.00;4484293;32;33853;-64
2023/10/28 10:47:04;;;;;;;6.72;1.60;;;;;;;24.34;44.66;98825.03;4484582;32;33211;-66
2023/10/28 10:49:32;;;;;;;8.82;1.48;;;;;;;24.31;44.06;98829.09;4484193;32;34262;-65
2023/10/28 10:52:00;;;;;;;3.90;1.20;;;;;;;24.30;43.75;98821.19;4483880;32;34842;-63
2023/10/28 10:54:30;;;;;;;7.50;1.90;;;;;;;24.29;43.83;98816.78;4483228;32;33857;-62
2023/10/28 10:56:58;;;;;;;9.53;1.50;;;;;;;24.29;44.05;98814.06;4457364;32;32358;-63
2023/10/28 10:59:31;;;;;;;6.87;1.40;;;;;;;24.30;44.14;98816.56;4483136;32;33810;-63
2023/10/28 11:02:02;;;;;;;4.70;1.30;;;;;;;24.29;44.20;98819.50;4457354;32;34859;-65
2023/10/28 11:04:30;;;;;;;4.57;1.37;;;;;;;24.29;44.00;98817.59;4470498;32;33798;-63
2023/10/28 11:06:58;;;;;;;3.87;1.15;;;;;;;24.29;44.12;98828.50;4470539;32;33546;-64
2023/10/28 11:09:28;;;;;;;6.20;1.60;;;;;;;24.29;43.86;98820.34;4483001;32;34803;-64
2023/10/28 11:11:56;;;;;;;5.18;1.20;;;;;;;24.28;43.89;98821.41;4484200;32;33895;-63
2023/10/28 11:14:24;;;;;;;2.87;0.90;;;;;;;24.29;43.88;98811.34;4484067;32;33945;-64
2023/10/28 11:16:52;;;;;;;3.25;1.00;;;;;;;24.27;43.58;98806.16;4470010;32;34039;-64
2023/10/28 11:19:19;;;;;;;6.87;1.83;;;;;;;24.27;43.59;98799.88;4469883;32;34917;-64
2023/10/28 11:21:47;;;;;;;3.33;1.33;;;;;;;24.26;43.44;98801.78;4484215;32;34777;-63
2023/10/28 11:24:15;;;;;;;4.47;1.17;;;;;;;24.27;43.13;98799.88;4482811;31;34448;-63
2023/10/28 11:26:46;;;;;;;4.10;1.35;;;;;;;24.26;43.38;98796.31;4483888;32;32778;-63
2023/10/28 11:29:15;;;;;;;8.43;1.60;;;;;;;24.25;43.55;98793.84;4482648;32;32864;-63
2023/10/28 11:31:42;;;;;;;5.10;1.30;;;;;;;24.26;43.67;98796.31;4483942;32;33988;-63
2023/10/28 11:34:12;;;;;;;7.32;1.52;;;;;;;24.26;43.64;98796.31;4469594;32;33758;-63
2023/10/28 11:36:39;;;;;;;5.28;1.73;;;;;;;24.25;43.69;98802.88;4482637;32;33429;-65
2023/10/28 11:39:08;;;;;;;3.72;1.30;;;;;;;24.28;43.67;98801.53;4482831;32;33453;-64
2023/10/28 11:41:36;;;;;;;4.67;1.00;;;;;;;24.27;43.64;98805.31;4482645;32;33966;-64